Airfield :
LOGIN :

Register | Disclaimer

   EN    FR    IT 

 










Legend :    VFR   Marginal VFR   IFR   Intensive IFR   Very Intensive IFR
Visi :
Ceiling :
>= 8 km
>= 3000ft
5 to 8 km
1000 to 3000 ft
1500m to 5 km
500 to 1000 ft
800 to 1500m
200 to 500 ft
< 800m
< 200 ft
Symbols :   Thunderstorms  Fog  Heavy snow  Heavy precipitations  Wind > 20 kt
SIGMETs :     Misc.  Thunderstorms  Icing  Turbulence  Mountain Waves  Volcanic Ashes






- Airport Elevation : 257 ft
- IATA code : MAN


EGCC - Manchester

CURRENT METAR :
  • 110050Z AUTO 21009KT 9999 SCT037 05/02 Q1004

EXPIRED METARs :
  • 110020Z AUTO 21007KT 9999 BKN032 05/02 Q1004
  • 102350Z AUTO 19005KT 9999 BKN037 04/02 Q1004
  • 102320Z AUTO 20006KT 9999 NCD 04/02 Q1003
  • 102250Z AUTO 19006KT 150V220 9999 SCT032 SCT040 04/02 Q1003
  • 102220Z AUTO 19005KT 9999 BKN033 05/03 Q1002 NOSIG
  • 102150Z AUTO 21007KT 130V240 9999 FEW038 SCT047 05/03 Q1002 NOSIG

TAF TAF EGCC
Valid from the 11 at 00:00 until the 12 at 06:00 UTC


102301Z 1100/1206 19008KT 9999 FEW030
TEMPO 1112/1118 6000 SHRA BKN012
BECMG 1114/1117 25010KT
PROB30
TEMPO 1118/1124 8000 -SHRA BKN014
BECMG 1200/1203 18008KT
ATIS : +44 161 499 2324



MET'MAP, your aeronautical weather chart ! - Copyright ORBIFLY December 2007 - Disclaimer

ORBIFLY MET'MAP TEAM :

Programming & Development : Alexandra Zaïnal
Concept & original design : Baudouin d'Aumeries
Assistance for programming : Marc-Olivier Méhu
Technical & hardware support : Manuel Goepfert

Contact : metmap@orbifly.com




SOURCES & CREDITS :

   NOAA